TimeIST,TemperatureF,Dew PointF,Humidity,Sea Level PressureIn,VisibilityMPH,Wind Direction,Wind SpeedMPH,Gust SpeedMPH,PrecipitationIn,Events,Conditions,WindDirDegrees,DateUTC
12:00 AM,71.6,59.0,64,29.95,1.2,Calm,Calm,-,N/A,,Smoke,0,2013-10-24 18:30:00
12:30 AM,71.6,59.0,64,29.95,1.2,Calm,Calm,-,N/A,,Smoke,0,2013-10-24 19:00:00
1:00 AM,71.6,59.0,64,29.95,1.2,Calm,Calm,-,N/A,,Smoke,0,2013-10-24 19:30:00
2:00 AM,71.6,59.0,64,29.95,1.2,Calm,Calm,-,N/A,,Smoke,0,2013-10-24 20:30:00
2:30 AM,73,59,52,29.88,1,Calm,Calm,,,,Smoke,,2013-10-24 21:00:00
2:30 AM,73.4,59.0,61,29.92,1.2,Calm,Calm,-,N/A,,Smoke,0,2013-10-24 21:00:00
3:00 AM,71.6,59.0,64,29.92,1.2,Calm,Calm,-,N/A,,Smoke,0,2013-10-24 21:30:00
4:00 AM,69.8,59.0,68,29.92,1.2,Calm,Calm,-,N/A,,Haze,0,2013-10-24 22:30:00
5:00 AM,69.8,59.0,68,29.92,1.6,Variable,2.3,-,N/A,,Haze,0,2013-10-24 23:30:00
5:30 AM,71,58,55,29.88,1,Calm,Calm,,,,Haze,,2013-10-25 00:00:00
5:30 AM,69.8,59.0,68,29.95,1.6,Calm,Calm,-,N/A,,Haze,0,2013-10-25 00:00:00
6:00 AM,69.8,59.0,68,29.95,1.6,Calm,Calm,-,N/A,,Haze,0,2013-10-25 00:30:00
7:00 AM,69.8,59.0,68,29.98,1.6,Calm,Calm,-,N/A,,Smoke,0,2013-10-25 01:30:00
7:30 AM,71.6,60.8,69,29.98,1.6,Variable,1.2,-,N/A,,Smoke,0,2013-10-25 02:00:00
8:00 AM,73.4,60.8,65,29.98,1.2,Calm,Calm,-,N/A,,Smoke,0,2013-10-25 02:30:00
9:00 AM,78.8,60.8,54,30.01,1.6,ENE,5.8,-,N/A,,Smoke,70,2013-10-25 03:30:00
11:00 AM,84.2,57.2,40,29.98,1.9,Variable,5.8,-,N/A,,Haze,0,2013-10-25 05:30:00
11:30 AM,85,59,31,29.88,2,NNW,2.3,,,,Haze,340,2013-10-25 06:00:00
12:00 PM,84.2,57.2,40,29.95,1.9,ENE,5.8,-,N/A,,Haze,60,2013-10-25 06:30:00
1:00 PM,86.0,55.4,35,29.92,1.9,East,5.8,-,N/A,,Haze,100,2013-10-25 07:30:00
2:30 PM,88,54,22,29.79,1,East,9.2,,,,Haze,90,2013-10-25 09:00:00
3:00 PM,87.8,51.8,29,29.86,1.9,East,5.8,-,N/A,,Haze,80,2013-10-25 09:30:00
4:00 PM,87.8,51.8,29,29.86,1.9,ENE,8.1,-,N/A,,Haze,70,2013-10-25 10:30:00
5:00 PM,86.0,51.8,31,29.86,1.9,East,5.8,-,N/A,,Haze,80,2013-10-25 11:30:00
6:00 PM,80.6,55.4,42,29.86,1.9,Variable,3.5,-,N/A,,Haze,0,2013-10-25 12:30:00
7:00 PM,78.8,55.4,44,29.86,1.6,Calm,Calm,-,N/A,,Smoke,0,2013-10-25 13:30:00
8:00 PM,75.2,57.2,53,29.89,1.2,Calm,Calm,-,N/A,,Smoke,0,2013-10-25 14:30:00
8:30 PM,88,54,22,29.79,1,East,9.2,,,,Haze,90,2013-10-25 15:00:00
9:00 PM,77.0,57.2,50,29.89,1.2,Calm,Calm,-,N/A,,Smoke,0,2013-10-25 15:30:00
10:00 PM,75.2,55.4,50,29.92,1.2,Calm,Calm,-,N/A,,Smoke,0,2013-10-25 16:30:00
11:00 PM,75.2,55.4,50,29.92,1.2,Calm,Calm,-,N/A,,Smoke,0,2013-10-25 17:30:00
11:30 PM,74,55,40,29.85,1,Calm,Calm,,,,Smoke,,2013-10-25 18:00:00